Time;durP1;ratioP1;P1;durP2;ratioP2;P2;SDS_P1;SDS_P2;PMS_P1;PMS_P2;Temp;Humidity;BMP_temperature;BMP_pressure;BME280_temperature;BME280_humidity;BME280_pressure;Samples;Min_cycle;Max_cycle;Signal;HPM_P1;HPM_P2
2024/01/23 00:01:33;;;;;;;2.65;0.80;;;7.70;89.50;;;;;;5042788;28;20033;-64
2024/01/23 00:04:02;;;;;;;2.65;0.90;;;7.70;89.50;;;;;;5040350;28;20037;-63
2024/01/23 00:06:27;;;;;;;3.40;0.90;;;7.60;89.30;;;;;;5043895;28;20033;-63
2024/01/23 00:08:53;;;;;;;3.33;0.82;;;7.60;89.30;;;;;;5041119;28;20036;-63
2024/01/23 00:11:19;;;;;;;1.55;0.68;;;7.50;89.30;;;;;;5042144;28;20546;-63
2024/01/23 00:13:49;;;;;;;3.50;0.80;;;7.50;89.20;;;;;;5038575;28;20048;-62
2024/01/23 00:16:14;;;;;;;2.33;0.73;;;7.40;89.20;;;;;;5041765;28;20116;-63
2024/01/23 00:18:40;;;;;;;2.72;0.60;;;7.40;89.20;;;;;;5043329;28;20618;-62
2024/01/23 00:21:06;;;;;;;2.35;0.50;;;7.40;89.00;;;;;;5039373;28;20029;-62
2024/01/23 00:23:31;;;;;;;1.42;0.65;;;7.40;89.00;;;;;;5040194;28;20496;-63
2024/01/23 00:25:57;;;;;;;2.67;0.75;;;7.40;89.10;;;;;;5042746;28;20037;-63
2024/01/23 00:28:23;;;;;;;3.50;0.77;;;7.40;89.20;;;;;;5044525;28;20035;-63
2024/01/23 00:30:48;;;;;;;2.97;0.60;;;7.30;89.10;;;;;;5041949;28;20044;-63
2024/01/23 00:33:14;;;;;;;4.85;1.13;;;7.30;89.10;;;;;;5036891;28;20041;-62
2024/01/23 00:35:40;;;;;;;3.75;1.13;;;7.30;89.20;;;;;;5042720;28;20476;-62
2024/01/23 00:38:06;;;;;;;1.90;0.90;;;7.30;89.20;;;;;;5042193;28;20032;-63
2024/01/23 00:40:32;;;;;;;2.35;1.10;;;7.30;89.20;;;;;;5043528;28;20122;-63
2024/01/23 00:42:57;;;;;;;3.47;1.10;;;7.30;89.30;;;;;;5041435;28;20053;-63
2024/01/23 00:45:23;;;;;;;2.20;1.20;;;7.20;89.30;;;;;;5039082;28;20044;-63
2024/01/23 00:47:48;;;;;;;3.17;0.95;;;7.20;89.50;;;;;;5040731;28;20037;-62
2024/01/23 00:50:14;;;;;;;4.45;1.13;;;7.20;89.50;;;;;;5040805;28;20037;-63
2024/01/23 00:52:40;;;;;;;4.60;1.00;;;7.20;89.70;;;;;;5042186;28;20492;-62
2024/01/23 00:55:06;;;;;;;3.28;0.80;;;7.20;89.80;;;;;;5044164;28;20033;-62
2024/01/23 00:57:32;;;;;;;2.50;0.90;;;7.20;89.80;;;;;;5040555;28;20511;-63
2024/01/23 00:59:57;;;;;;;2.55;0.90;;;7.10;89.80;;;;;;5040453;28;20045;-63
2024/01/23 01:02:23;;;;;;;3.72;1.05;;;7.10;89.80;;;;;;5039457;28;20428;-63
2024/01/23 01:04:49;;;;;;;2.42;0.70;;;7.10;90.30;;;;;;5032775;28;20126;-63
2024/01/23 01:07:14;;;;;;;2.28;0.90;;;7.10;89.90;;;;;;5042061;28;20797;-63
2024/01/23 01:09:40;;;;;;;4.53;0.93;;;7.10;89.90;;;;;;5045157;28;20048;-63
2024/01/23 01:12:06;;;;;;;3.88;1.05;;;7.10;90.00;;;;;;5040182;28;20120;-64
2024/01/23 01:14:37;;;;;;;2.03;1.00;;;7.00;90.00;;;;;;5041842;28;20124;-63
2024/01/23 01:17:03;;;;;;;2.08;0.80;;;7.00;90.40;;;;;;5043074;28;20175;-63
2024/01/23 01:19:28;;;;;;;3.25;0.82;;;7.00;90.00;;;;;;5048739;28;20108;-61
2024/01/23 01:21:54;;;;;;;2.28;0.80;;;7.00;90.00;;;;;;5044212;28;20036;-63
2024/01/23 01:24:19;;;;;;;1.42;0.65;;;7.00;89.90;;;;;;5045687;28;20029;-63
2024/01/23 01:26:45;;;;;;;1.77;0.60;;;7.00;90.00;;;;;;5042105;28;20099;-62
2024/01/23 01:29:11;;;;;;;2.58;0.63;;;7.00;89.50;;;;;;5043502;28;20021;-63
2024/01/23 01:31:36;;;;;;;1.83;0.90;;;7.00;89.50;;;;;;5042547;28;20408;-63
2024/01/23 01:34:02;;;;;;;1.98;0.60;;;6.90;89.30;;;;;;5045404;28;20029;-63
2024/01/23 01:36:28;;;;;;;1.73;0.50;;;6.90;89.50;;;;;;5042396;28;20040;-63
2024/01/23 01:38:56;;;;;;;3.47;0.70;;;6.90;89.70;;;;;;5040161;28;20036;-63
2024/01/23 01:41:22;;;;;;;1.92;0.70;;;6.90;89.80;;;;;;5043099;28;20116;-62
2024/01/23 01:43:47;;;;;;;3.83;0.80;;;6.90;90.00;;;;;;5042488;28;20457;-62
2024/01/23 01:46:20;;;;;;;2.47;0.90;;;6.90;90.00;;;;;;5043573;28;20033;-62
2024/01/23 01:48:47;;;;;;;1.45;0.70;;;6.90;90.10;;;;;;5042697;28;20488;-61
2024/01/23 01:51:19;;;;;;;1.67;0.50;;;6.90;90.00;;;;;;5040105;28;20581;-63
2024/01/23 01:53:46;;;;;;;3.15;0.88;;;6.90;90.00;;;;;;5038501;28;20049;-62
2024/01/23 01:56:12;;;;;;;2.05;0.70;;;6.90;89.90;;;;;;5045662;28;20128;-62
2024/01/23 01:58:42;;;;;;;3.55;0.70;;;7.00;90.30;;;;;;5043872;28;20474;-63
2024/01/23 02:01:10;;;;;;;2.13;0.60;;;7.00;89.90;;;;;;5038064;28;20087;-62
2024/01/23 02:03:35;;;;;;;2.75;0.50;;;7.00;89.70;;;;;;5039601;28;20068;-63
2024/01/23 02:06:03;;;;;;;3.38;0.88;;;7.00;89.70;;;;;;5038778;28;20064;-63
2024/01/23 02:08:29;;;;;;;3.72;0.60;;;7.00;89.60;;;;;;5042813;28;20033;-62
2024/01/23 02:10:55;;;;;;;2.55;0.70;;;7.00;89.40;;;;;;5041163;28;20030;-63
2024/01/23 02:13:22;;;;;;;3.70;0.70;;;7.00;89.40;;;;;;5042617;28;20032;-63
2024/01/23 02:15:47;;;;;;;3.28;0.80;;;7.00;89.30;;;;;;5044734;28;20748;-62
2024/01/23 02:18:13;;;;;;;1.90;0.55;;;7.00;89.30;;;;;;5048832;28;20064;-61
2024/01/23 02:20:39;;;;;;;3.22;0.90;;;7.00;89.40;;;;;;5046360;28;20523;-61
2024/01/23 02:23:04;;;;;;;2.72;0.70;;;7.00;89.40;;;;;;5046222;28;20025;-63
2024/01/23 02:25:30;;;;;;;1.50;0.60;;;7.00;89.40;;;;;;5041651;28;20068;-63
2024/01/23 02:27:57;;;;;;;2.90;0.60;;;7.00;89.40;;;;;;5039186;28;20029;-61
2024/01/23 02:30:23;;;;;;;2.70;0.50;;;7.00;90.10;;;;;;5043377;28;20040;-63
2024/01/23 02:32:48;;;;;;;4.15;0.65;;;7.00;89.40;;;;;;5043548;28;20566;-63
2024/01/23 02:35:14;;;;;;;3.70;0.75;;;7.00;89.20;;;;;;5049794;28;20024;-63
2024/01/23 02:37:39;;;;;;;2.28;0.70;;;7.00;89.20;;;;;;5043583;28;20087;-63
2024/01/23 02:40:06;;;;;;;1.15;0.55;;;7.00;89.10;;;;;;5045097;28;20162;-63
2024/01/23 02:42:32;;;;;;;2.75;0.63;;;7.00;89.00;;;;;;5041175;28;20378;-62
2024/01/23 02:44:58;;;;;;;3.17;0.93;;;7.00;89.00;;;;;;5044720;28;20038;-63
2024/01/23 02:47:23;;;;;;;4.03;0.75;;;7.00;88.90;;;;;;5044509;28;20402;-62
2024/01/23 02:49:50;;;;;;;1.70;0.85;;;7.00;88.80;;;;;;5043306;28;20033;-63
2024/01/23 02:52:16;;;;;;;3.72;0.70;;;7.00;88.80;;;;;;5043554;28;20036;-63
2024/01/23 02:54:42;;;;;;;3.05;0.80;;;7.00;88.80;;;;;;5042380;28;20029;-63
2024/01/23 02:57:08;;;;;;;4.50;0.80;;;7.00;88.80;;;;;;5042698;28;20045;-63
2024/01/23 02:59:33;;;;;;;4.18;0.75;;;7.00;88.90;;;;;;5041329;28;20531;-63
2024/01/23 03:01:59;;;;;;;2.55;0.60;;;7.00;89.00;;;;;;5043034;28;20060;-63
2024/01/23 03:04:24;;;;;;;4.88;0.88;;;7.00;89.90;;;;;;5045591;28;20029;-63
2024/01/23 03:06:50;;;;;;;2.10;0.90;;;7.00;89.90;;;;;;5044447;28;20041;-62
2024/01/23 03:09:15;;;;;;;3.88;0.82;;;7.00;89.20;;;;;;5050530;28;20029;-63
2024/01/23 03:11:41;;;;;;;2.10;0.57;;;7.00;89.10;;;;;;5046722;28;20029;-63
2024/01/23 03:14:07;;;;;;;2.88;0.80;;;7.00;89.00;;;;;;5045293;28;20112;-61
2024/01/23 03:16:32;;;;;;;2.55;0.70;;;7.00;89.00;;;;;;5048555;28;20072;-63
2024/01/23 03:18:58;;;;;;;3.53;0.90;;;7.00;89.00;;;;;;5048386;28;20036;-62
2024/01/23 03:21:23;;;;;;;3.65;0.75;;;7.00;89.00;;;;;;5046118;28;20030;-62
2024/01/23 03:23:49;;;;;;;2.08;0.70;;;7.00;89.20;;;;;;5045092;28;20508;-63
2024/01/23 03:26:15;;;;;;;3.55;0.80;;;7.00;89.20;;;;;;5046225;28;20552;-63
2024/01/23 03:28:40;;;;;;;4.68;0.70;;;7.00;89.30;;;;;;5047235;28;20528;-63
2024/01/23 03:31:06;;;;;;;4.15;0.70;;;7.00;89.20;;;;;;5045704;28;20029;-63
2024/01/23 03:33:32;;;;;;;2.67;0.75;;;7.00;89.20;;;;;;5046989;28;20333;-64
2024/01/23 03:35:58;;;;;;;3.22;0.88;;;7.00;89.90;;;;;;5044408;28;20040;-63
2024/01/23 03:38:23;;;;;;;5.55;0.80;;;7.00;89.10;;;;;;5046898;28;20025;-62
2024/01/23 03:40:49;;;;;;;3.47;0.70;;;7.00;89.00;;;;;;5042523;28;20040;-63
2024/01/23 03:43:15;;;;;;;5.40;1.00;;;7.00;89.00;;;;;;5047782;28;20032;-63
2024/01/23 03:45:40;;;;;;;5.00;1.20;;;7.00;89.00;;;;;;5047447;28;20033;-63
2024/01/23 03:48:06;;;;;;;3.53;0.77;;;7.00;88.90;;;;;;5047714;28;20029;-61
2024/01/23 03:50:32;;;;;;;4.07;0.98;;;7.00;88.90;;;;;;5047106;28;20041;-62
2024/01/23 03:52:58;;;;;;;4.90;1.00;;;6.90;88.80;;;;;;5044849;28;20423;-62
2024/01/23 03:55:23;;;;;;;3.60;0.80;;;6.90;88.80;;;;;;5044645;28;20033;-63
2024/01/23 03:57:49;;;;;;;3.05;0.90;;;6.90;88.80;;;;;;5048425;28;20520;-63
2024/01/23 04:00:15;;;;;;;3.70;1.10;;;6.90;88.80;;;;;;5048513;28;20123;-63
2024/01/23 04:02:41;;;;;;;4.13;0.93;;;6.90;88.60;;;;;;5045481;28;20040;-63
2024/01/23 04:05:07;;;;;;;3.22;0.70;;;6.90;88.60;;;;;;5047223;28;20385;-63
2024/01/23 04:07:34;;;;;;;2.47;0.93;;;6.90;88.50;;;;;;5047068;28;20291;-63
2024/01/23 04:10:06;;;;;;;2.50;1.00;;;6.80;88.40;;;;;;5045052;28;20475;-63
2024/01/23 04:12:32;;;;;;;3.20;0.70;;;6.80;88.40;;;;;;5044510;28;20041;-63
2024/01/23 04:14:58;;;;;;;3.45;0.82;;;6.80;88.30;;;;;;5047533;28;20075;-62
2024/01/23 04:17:25;;;;;;;4.78;1.20;;;6.80;88.30;;;;;;5045446;28;20049;-63
2024/01/23 04:19:50;;;;;;;2.70;0.98;;;6.80;88.30;;;;;;5042358;28;20120;-62
2024/01/23 04:22:16;;;;;;;5.25;1.08;;;6.80;88.30;;;;;;5044915;28;20476;-62
2024/01/23 04:24:41;;;;;;;4.60;1.00;;;6.80;88.20;;;;;;5045744;28;20045;-63
2024/01/23 04:27:07;;;;;;;5.03;1.40;;;6.80;88.20;;;;;;5046356;28;20212;-63
2024/01/23 04:29:33;;;;;;;4.13;1.08;;;6.70;88.10;;;;;;5044493;28;20039;-63
2024/01/23 04:31:59;;;;;;;5.22;1.17;;;6.70;88.10;;;;;;5044954;28;20116;-63
2024/01/23 04:34:24;;;;;;;5.25;1.08;;;6.70;88.10;;;;;;5044845;28;20025;-62
2024/01/23 04:36:50;;;;;;;2.95;1.05;;;6.70;88.00;;;;;;5040580;28;20608;-63
2024/01/23 04:39:16;;;;;;;5.75;0.90;;;6.70;88.00;;;;;;5044251;28;20033;-62
2024/01/23 04:41:42;;;;;;;3.72;0.70;;;6.70;88.00;;;;;;5042879;28;20524;-63
2024/01/23 04:44:07;;;;;;;4.13;0.82;;;6.70;87.90;;;;;;5044701;28;20037;-63
2024/01/23 04:46:33;;;;;;;3.58;0.70;;;6.50;87.60;;;;;;5043836;28;20063;-64
2024/01/23 04:48:58;;;;;;;2.33;0.70;;;6.70;87.60;;;;;;5044735;28;20039;-63
2024/01/23 04:51:24;;;;;;;2.95;0.70;;;6.70;87.60;;;;;;5046681;28;20385;-61
2024/01/23 04:53:52;;;;;;;5.13;0.98;;;6.70;87.50;;;;;;5041331;28;20033;-63
2024/01/23 04:56:18;;;;;;;4.88;0.88;;;6.60;87.40;;;;;;5046975;28;20047;-63
2024/01/23 04:58:44;;;;;;;2.47;0.52;;;6.60;87.30;;;;;;5046186;28;20083;-62
2024/01/23 05:01:09;;;;;;;5.55;0.80;;;6.60;87.30;;;;;;5043796;28;20036;-63
2024/01/23 05:03:35;;;;;;;4.75;0.70;;;6.60;87.30;;;;;;5043470;28;20060;-63
2024/01/23 05:06:00;;;;;;;5.55;0.95;;;6.60;87.20;;;;;;5044322;28;20412;-63
2024/01/23 05:08:26;;;;;;;5.75;1.05;;;6.60;87.10;;;;;;5046766;28;20025;-62
2024/01/23 05:10:52;;;;;;;4.25;1.05;;;6.60;87.00;;;;;;5037063;28;20482;-63
2024/01/23 05:13:17;;;;;;;4.55;0.90;;;6.60;87.00;;;;;;5045077;28;20156;-63
2024/01/23 05:15:43;;;;;;;6.88;0.80;;;6.60;86.90;;;;;;5039650;28;20083;-62
2024/01/23 05:18:08;;;;;;;5.75;1.42;;;6.60;86.80;;;;;;5042752;28;20033;-63
2024/01/23 05:20:34;;;;;;;6.85;1.27;;;6.60;86.80;;;;;;5041908;28;20504;-64
2024/01/23 05:23:01;;;;;;;2.40;1.05;;;6.50;86.70;;;;;;5036840;28;20041;-63
2024/01/23 05:25:27;;;;;;;2.80;0.70;;;6.50;86.60;;;;;;5044352;28;20037;-63
2024/01/23 05:27:53;;;;;;;4.63;1.10;;;6.50;86.50;;;;;;5041303;28;20033;-62
2024/01/23 05:30:19;;;;;;;4.63;1.20;;;6.50;86.50;;;;;;5045506;28;20067;-64
2024/01/23 05:32:45;;;;;;;4.57;1.25;;;6.40;86.50;;;;;;5042009;28;20045;-63
2024/01/23 05:35:11;;;;;;;3.83;0.70;;;6.40;86.50;;;;;;5044071;28;20029;-63
2024/01/23 05:37:36;;;;;;;4.60;1.05;;;6.40;86.60;;;;;;5044984;28;20051;-63
2024/01/23 05:40:05;;;;;;;4.45;0.93;;;6.40;86.60;;;;;;5041772;28;20045;-63
2024/01/23 05:42:31;;;;;;;2.88;0.63;;;6.30;86.50;;;;;;5045390;28;20055;-63
2024/01/23 05:44:56;;;;;;;2.45;0.80;;;6.30;87.40;;;;;;5043713;28;20037;-63
2024/01/23 05:47:22;;;;;;;5.07;1.25;;;6.30;86.60;;;;;;5045784;28;20442;-63
2024/01/23 05:49:48;;;;;;;5.55;1.08;;;6.30;86.60;;;;;;5040156;28;20047;-63
2024/01/23 05:52:15;;;;;;;3.33;0.95;;;6.30;86.60;;;;;;5043452;28;20420;-63
2024/01/23 05:54:41;;;;;;;4.43;1.33;;;6.30;86.70;;;;;;5041854;28;20033;-63
2024/01/23 05:57:08;;;;;;;4.53;1.00;;;6.30;86.80;;;;;;5038820;28;20113;-62
2024/01/23 05:59:34;;;;;;;4.05;1.02;;;6.30;86.90;;;;;;5043287;28;20037;-63
2024/01/23 06:01:59;;;;;;;4.30;0.90;;;6.30;87.00;;;;;;5041412;28;20500;-63
2024/01/23 06:04:25;;;;;;;4.47;1.10;;;6.30;87.00;;;;;;5047057;28;20041;-63
2024/01/23 06:06:51;;;;;;;5.65;1.00;;;6.30;87.00;;;;;;5040499;28;20052;-63
2024/01/23 06:09:16;;;;;;;4.57;1.10;;;6.30;87.10;;;;;;5045353;28;20083;-63
2024/01/23 06:11:42;;;;;;;3.80;1.08;;;6.20;87.00;;;;;;5041834;28;20048;-62
2024/01/23 06:14:07;;;;;;;4.18;1.10;;;6.30;87.00;;;;;;5041279;28;20029;-63
2024/01/23 06:16:33;;;;;;;5.15;1.65;;;6.30;87.00;;;;;;5040120;28;20052;-62
2024/01/23 06:18:58;;;;;;;2.22;1.10;;;6.30;87.00;;;;;;5041400;28;20406;-63
2024/01/23 06:21:24;;;;;;;5.88;1.05;;;6.30;87.00;;;;;;5043334;28;20029;-61
2024/01/23 06:23:50;;;;;;;1.55;0.77;;;6.30;87.00;;;;;;5040624;28;20040;-63
2024/01/23 06:26:16;;;;;;;4.60;1.17;;;6.30;87.00;;;;;;5043558;28;20041;-63
2024/01/23 06:28:42;;;;;;;3.35;0.88;;;6.30;86.90;;;;;;5041335;28;20041;-63
2024/01/23 06:31:07;;;;;;;4.28;1.00;;;6.30;87.00;;;;;;5042670;28;20030;-62
2024/01/23 06:33:33;;;;;;;3.13;0.90;;;6.30;87.00;;;;;;5042500;28;20090;-63
2024/01/23 06:35:59;;;;;;;3.65;0.70;;;6.30;87.00;;;;;;5041210;28;20057;-63
2024/01/23 06:38:24;;;;;;;2.58;0.70;;;6.30;87.20;;;;;;5043369;28;20025;-63
2024/01/23 06:40:50;;;;;;;3.17;1.00;;;6.30;87.20;;;;;;5044413;28;20037;-62
2024/01/23 06:43:15;;;;;;;4.97;1.20;;;6.30;87.30;;;;;;5043343;28;20041;-62
2024/01/23 06:45:41;;;;;;;3.63;0.88;;;6.20;87.30;;;;;;5039101;28;20030;-62
2024/01/23 06:48:07;;;;;;;4.57;1.00;;;6.20;87.40;;;;;;5039635;28;20025;-63
2024/01/23 06:50:33;;;;;;;6.45;1.42;;;6.20;87.40;;;;;;5042524;28;20033;-63
2024/01/23 06:52:58;;;;;;;6.35;1.80;;;6.20;87.50;;;;;;5043063;28;20037;-61
2024/01/23 06:55:24;;;;;;;6.78;1.70;;;6.20;87.50;;;;;;5043302;28;20067;-62
2024/01/23 06:57:50;;;;;;;8.20;1.20;;;6.20;87.70;;;;;;5040404;28;20052;-63
2024/01/23 07:00:16;;;;;;;5.90;1.65;;;6.20;87.70;;;;;;5039873;28;20037;-62
2024/01/23 07:02:42;;;;;;;5.53;1.40;;;6.20;87.80;;;;;;5042961;28;20036;-63
2024/01/23 07:05:07;;;;;;;5.53;1.40;;;6.20;87.80;;;;;;5045176;28;20037;-62
2024/01/23 07:07:34;;;;;;;3.88;1.40;;;6.20;87.80;;;;;;5044948;28;20044;-63
2024/01/23 07:09:59;;;;;;;5.40;1.85;;;6.30;87.90;;;;;;5044949;28;20037;-62
2024/01/23 07:12:25;;;;;;;5.05;1.80;;;6.30;87.90;;;;;;5046812;28;20522;-62
2024/01/23 07:14:51;;;;;;;7.63;1.50;;;6.30;87.80;;;;;;5043641;28;20038;-62
2024/01/23 07:17:17;;;;;;;5.05;1.30;;;6.20;87.70;;;;;;5046839;28;20032;-63
2024/01/23 07:19:42;;;;;;;7.20;1.77;;;6.30;87.80;;;;;;5047451;28;20047;-63
2024/01/23 07:22:08;;;;;;;10.18;2.10;;;6.20;87.80;;;;;;5045588;28;20480;-63
2024/01/23 07:24:33;;;;;;;13.50;2.00;;;6.20;87.90;;;;;;5045755;28;20072;-61
2024/01/23 07:26:59;;;;;;;7.55;1.75;;;6.20;87.90;;;;;;5044375;28;20041;-63
2024/01/23 07:29:24;;;;;;;4.55;1.17;;;6.20;87.90;;;;;;5046451;28;20036;-63
2024/01/23 07:31:50;;;;;;;4.60;1.15;;;6.20;88.70;;;;;;5043722;28;20087;-62
2024/01/23 07:34:16;;;;;;;5.70;1.17;;;6.20;87.90;;;;;;5045772;28;20053;-62
2024/01/23 07:36:42;;;;;;;7.90;1.50;;;6.20;87.90;;;;;;5044343;28;20087;-63
2024/01/23 07:39:07;;;;;;;6.15;1.40;;;6.20;87.90;;;;;;5041143;28;20485;-62
2024/01/23 07:41:33;;;;;;;5.43;1.30;;;6.10;87.90;;;;;;5045877;28;20041;-62
2024/01/23 07:43:58;;;;;;;4.93;1.48;;;6.10;87.80;;;;;;5045811;28;20043;-63
2024/01/23 07:46:26;;;;;;;3.97;1.73;;;6.10;87.80;;;;;;5046088;28;20021;-63
2024/01/23 07:48:52;;;;;;;9.10;1.90;;;6.10;87.90;;;;;;5043210;28;20414;-63
2024/01/23 07:51:17;;;;;;;4.28;1.20;;;6.10;87.90;;;;;;5046970;28;20114;-63
2024/01/23 07:53:44;;;;;;;6.65;1.52;;;6.10;88.10;;;;;;5040605;28;20493;-65
2024/01/23 07:56:09;;;;;;;5.93;1.48;;;6.00;88.30;;;;;;5046787;28;20029;-64
2024/01/23 07:58:35;;;;;;;6.82;1.83;;;6.00;88.60;;;;;;5044925;28;20557;-63
2024/01/23 08:01:00;;;;;;;6.35;1.60;;;6.00;88.70;;;;;;5043657;28;20033;-64
2024/01/23 08:03:26;;;;;;;4.95;1.73;;;5.90;88.80;;;;;;5040663;28;20037;-64
2024/01/23 08:05:52;;;;;;;5.60;1.85;;;5.90;89.10;;;;;;5042193;28;20116;-64
2024/01/23 08:08:17;;;;;;;10.40;2.13;;;5.90;89.30;;;;;;5047689;28;20400;-64
2024/01/23 08:10:43;;;;;;;6.13;2.00;;;5.90;89.50;;;;;;5043248;28;20382;-64
2024/01/23 08:13:08;;;;;;;10.68;3.70;;;5.90;89.70;;;;;;5044074;28;20029;-64
2024/01/23 08:15:34;;;;;;;5.10;2.17;;;5.80;89.80;;;;;;5042262;28;20475;-64
2024/01/23 08:18:03;;;;;;;5.95;1.60;;;5.80;90.00;;;;;;5043054;28;20041;-64
2024/01/23 08:20:30;;;;;;;3.50;1.60;;;5.80;90.00;;;;;;5045393;28;20577;-64
2024/01/23 08:22:55;;;;;;;5.25;1.50;;;5.80;90.10;;;;;;5037633;28;20034;-64
2024/01/23 08:25:21;;;;;;;6.18;1.30;;;5.80;90.10;;;;;;5045471;28;20028;-64
2024/01/23 08:27:46;;;;;;;4.20;1.30;;;5.80;90.10;;;;;;5043063;28;20132;-64
2024/01/23 08:30:12;;;;;;;4.95;1.40;;;5.80;90.10;;;;;;5044679;28;20025;-64
2024/01/23 08:32:38;;;;;;;3.40;1.33;;;5.80;90.10;;;;;;5043859;28;20036;-64
2024/01/23 08:35:06;;;;;;;3.42;1.10;;;5.90;90.10;;;;;;5043950;28;20511;-64
2024/01/23 08:37:32;;;;;;;6.97;1.30;;;5.90;90.10;;;;;;5044938;28;20131;-64
2024/01/23 08:39:57;;;;;;;5.10;1.50;;;5.90;90.00;;;;;;5042884;28;20493;-65
2024/01/23 08:42:23;;;;;;;6.88;1.30;;;5.90;90.00;;;;;;5044801;28;20120;-63
2024/01/23 08:44:50;;;;;;;7.05;1.13;;;5.90;90.00;;;;;;5041750;28;20446;-62
2024/01/23 08:47:16;;;;;;;8.68;1.30;;;5.90;89.80;;;;;;5039857;28;20489;-64
2024/01/23 08:49:41;;;;;;;7.50;1.60;;;5.90;89.80;;;;;;5043311;28;20082;-64
2024/01/23 08:52:07;;;;;;;8.48;2.10;;;6.00;89.90;;;;;;5044061;28;20037;-64
2024/01/23 08:54:34;;;;;;;6.50;1.70;;;6.00;90.10;;;;;;5045865;28;20048;-63
2024/01/23 08:57:00;;;;;;;3.80;1.30;;;6.00;90.20;;;;;;5041408;28;20527;-64
2024/01/23 08:59:27;;;;;;;6.10;1.10;;;6.10;90.30;;;;;;5043455;28;20149;-63
2024/01/23 09:01:53;;;;;;;5.43;1.10;;;6.10;90.50;;;;;;5037404;28;20033;-64
2024/01/23 09:04:18;;;;;;;5.53;1.23;;;6.20;90.50;;;;;;5042448;28;20033;-63
2024/01/23 09:06:44;;;;;;;4.63;1.13;;;6.20;90.50;;;;;;5044557;28;20028;-64
2024/01/23 09:09:10;;;;;;;3.78;0.80;;;6.30;90.50;;;;;;5041454;28;20144;-62
2024/01/23 09:11:36;;;;;;;3.70;1.40;;;6.30;90.50;;;;;;5040750;28;20412;-63
2024/01/23 09:14:02;;;;;;;5.10;1.10;;;6.40;90.50;;;;;;5043374;28;20030;-64
2024/01/23 09:16:28;;;;;;;4.00;0.90;;;6.40;90.40;;;;;;5046421;28;20048;-63
2024/01/23 09:18:55;;;;;;;5.97;1.10;;;6.50;90.40;;;;;;5043391;28;20022;-63
2024/01/23 09:21:22;;;;;;;4.75;0.80;;;6.60;90.30;;;;;;5045803;28;20416;-63
2024/01/23 09:23:48;;;;;;;8.13;1.75;;;6.60;90.30;;;;;;5041976;28;20029;-63
2024/01/23 09:26:14;;;;;;;2.17;0.70;;;6.70;90.20;;;;;;5044863;28;20116;-63
2024/01/23 09:28:39;;;;;;;4.22;0.82;;;6.70;90.10;;;;;;5044189;28;20131;-63
2024/01/23 09:31:05;;;;;;;2.63;0.50;;;6.80;90.00;;;;;;5045310;28;20045;-63
2024/01/23 09:33:30;;;;;;;1.90;0.73;;;6.80;89.70;;;;;;5043934;28;20049;-62
2024/01/23 09:35:56;;;;;;;3.38;0.70;;;6.90;89.30;;;;;;5041213;28;20026;-63
2024/01/23 09:38:22;;;;;;;4.40;1.42;;;6.90;89.20;;;;;;5045318;28;20037;-63
2024/01/23 09:40:50;;;;;;;5.20;0.93;;;6.90;89.20;;;;;;5042268;28;20033;-62
2024/01/23 09:43:19;;;;;;;6.30;1.35;;;6.90;89.10;;;;;;5043551;28;20112;-61
2024/01/23 09:45:50;;;;;;;3.25;1.00;;;7.00;89.20;;;;;;5041894;28;20033;-62
2024/01/23 09:48:16;;;;;;;6.72;0.88;;;7.00;89.10;;;;;;5038936;28;20033;-62
2024/01/23 09:50:44;;;;;;;3.95;1.30;;;7.10;89.00;;;;;;5042502;28;20435;-63
2024/01/23 09:53:10;;;;;;;6.47;1.23;;;7.10;88.90;;;;;;5043144;28;20025;-63
2024/01/23 09:55:36;;;;;;;5.13;1.05;;;7.10;88.70;;;;;;5043191;28;20128;-63
2024/01/23 09:58:03;;;;;;;6.30;1.20;;;7.20;88.60;;;;;;5039377;28;20431;-64
2024/01/23 10:00:29;;;;;;;5.10;1.10;;;7.20;88.50;;;;;;5044924;28;20033;-65
2024/01/23 10:02:55;;;;;;;6.90;1.40;;;7.30;88.40;;;;;;5040519;28;20043;-63
2024/01/23 10:05:22;;;;;;;7.80;1.55;;;7.40;88.30;;;;;;5045115;28;20072;-63
2024/01/23 10:07:47;;;;;;;3.95;1.00;;;7.50;88.10;;;;;;5041525;28;20029;-63
2024/01/23 10:10:15;;;;;;;3.35;0.93;;;7.50;88.00;;;;;;5042835;28;20083;-62
2024/01/23 10:12:44;;;;;;;3.88;1.00;;;7.60;87.90;;;;;;5043364;28;20059;-61
2024/01/23 10:15:20;;;;;;;9.75;2.95;;;7.60;87.80;;;;;;5041839;28;20041;-62
2024/01/23 10:17:46;;;;;;;3.67;1.30;;;7.70;87.60;;;;;;5040847;28;20075;-62
2024/01/23 10:20:13;;;;;;;5.82;1.00;;;7.80;87.60;;;;;;5036387;28;20060;-63
2024/01/23 10:22:38;;;;;;;5.28;1.15;;;7.80;87.30;;;;;;5041434;28;20052;-64
2024/01/23 10:25:14;;;;;;;5.55;1.50;;;7.90;87.00;;;;;;5041229;28;20037;-62
2024/01/23 10:27:39;;;;;;;5.45;1.42;;;8.00;86.40;;;;;;5044252;28;20041;-62
2024/01/23 10:30:06;;;;;;;8.13;1.08;;;8.00;86.40;;;;;;5041771;28;20100;-63
2024/01/23 10:32:32;;;;;;;6.43;1.13;;;8.00;86.40;;;;;;5042597;28;20064;-61
2024/01/23 10:34:58;;;;;;;5.75;0.80;;;8.10;86.30;;;;;;5042282;28;20519;-62
2024/01/23 10:37:24;;;;;;;7.07;1.17;;;8.20;86.20;;;;;;5044070;28;20041;-63
2024/01/23 10:39:51;;;;;;;4.85;0.93;;;8.20;86.00;;;;;;5045815;28;20130;-63
2024/01/23 10:42:19;;;;;;;3.47;0.73;;;8.30;85.90;;;;;;5041419;28;20036;-61
2024/01/23 10:44:49;;;;;;;4.05;0.98;;;8.30;85.90;;;;;;5044497;28;20041;-62
2024/01/23 10:47:15;;;;;;;4.35;1.10;;;8.40;84.60;;;;;;5047366;28;20048;-62
2024/01/23 10:49:42;;;;;;;2.75;0.93;;;8.40;85.00;;;;;;5046624;28;20044;-63
2024/01/23 10:52:11;;;;;;;6.32;1.20;;;8.50;84.50;;;;;;5046046;28;20036;-62
2024/01/23 10:54:42;;;;;;;4.93;1.08;;;8.50;84.60;;;;;;5048217;28;20547;-61
2024/01/23 10:57:15;;;;;;;4.88;1.10;;;8.60;84.10;;;;;;5046549;28;20038;-63
2024/01/23 10:59:45;;;;;;;6.38;1.05;;;8.50;82.90;;;;;;5045549;28;20041;-64
2024/01/23 11:02:37;;;;;;;6.93;1.10;;;8.60;82.90;;;;;;5047320;28;20462;-63
2024/01/23 11:05:03;;;;;;;1.48;0.63;;;8.60;82.20;;;;;;5044313;28;20037;-63
2024/01/23 11:07:40;;;;;;;3.83;0.88;;;8.60;82.80;;;;;;5051004;28;20090;-61
2024/01/23 11:10:21;;;;;;;3.60;0.85;;;8.60;82.90;;;;;;5044721;28;20071;-62
2024/01/23 11:12:59;;;;;;;4.05;0.90;;;8.70;82.90;;;;;;5046247;28;20045;-61
2024/01/23 11:15:24;;;;;;;7.35;1.08;;;8.70;83.50;;;;;;5042576;28;20037;-63
2024/01/23 11:17:52;;;;;;;3.65;0.77;;;8.70;83.70;;;;;;5045426;28;20427;-61
2024/01/23 11:20:18;;;;;;;3.70;0.95;;;8.80;83.30;;;;;;5047323;28;20381;-62
2024/01/23 11:22:45;;;;;;;6.05;1.10;;;8.80;83.00;;;;;;5044796;28;20032;-62
2024/01/23 11:25:16;;;;;;;3.50;0.93;;;8.80;83.10;;;;;;5042263;28;20577;-62
2024/01/23 11:27:47;;;;;;;5.63;1.00;;;8.90;82.40;;;;;;5045025;28;20049;-63
2024/01/23 11:30:13;;;;;;;5.05;1.02;;;8.90;81.30;;;;;;5045253;28;20036;-63
2024/01/23 11:32:39;;;;;;;5.50;1.10;;;8.90;81.60;;;;;;5046323;28;20128;-61
2024/01/23 11:35:14;;;;;;;4.32;1.02;;;8.90;81.90;;;;;;5046882;28;20544;-63
2024/01/23 11:37:46;;;;;;;5.22;0.85;;;9.00;81.20;;;;;;5047355;28;20051;-63
2024/01/23 11:40:27;;;;;;;4.35;1.17;;;9.00;81.10;;;;;;5047222;28;20033;-63
2024/01/23 11:42:54;;;;;;;3.90;0.80;;;9.00;80.40;;;;;;5043470;28;20048;-64
2024/01/23 11:45:27;;;;;;;4.40;0.90;;;9.00;81.00;;;;;;5045968;28;20022;-63
2024/01/23 11:48:02;;;;;;;1.90;0.70;;;9.00;80.90;;;;;;5044743;28;20030;-62
2024/01/23 11:50:29;;;;;;;4.03;0.75;;;9.00;80.60;;;;;;5045909;28;20036;-63
2024/01/23 11:52:57;;;;;;;4.97;0.80;;;9.00;80.10;;;;;;5041404;28;20033;-62
2024/01/23 11:55:23;;;;;;;3.83;0.80;;;8.90;79.40;;;;;;5046206;28;20025;-63
2024/01/23 11:57:49;;;;;;;7.38;1.48;;;8.90;79.30;;;;;;5044214;28;20459;-64
2024/01/23 12:00:16;;;;;;;3.60;0.90;;;8.70;79.20;;;;;;5046284;28;20481;-61
2024/01/23 12:02:43;;;;;;;2.78;0.80;;;8.50;79.80;;;;;;5045695;28;20048;-63
2024/01/23 12:05:08;;;;;;;3.33;0.80;;;8.30;81.00;;;;;;5044179;28;20049;-63
2024/01/23 12:07:37;;;;;;;4.63;1.00;;;8.20;82.00;;;;;;5046960;28;20037;-64
2024/01/23 12:10:07;;;;;;;3.13;1.05;;;8.00;82.90;;;;;;5043247;28;20079;-63
2024/01/23 12:12:33;;;;;;;4.65;0.82;;;7.90;83.50;;;;;;5047306;28;20029;-63
2024/01/23 12:14:59;;;;;;;4.25;0.80;;;7.80;84.30;;;;;;5043677;28;20041;-62
2024/01/23 12:17:24;;;;;;;5.93;1.20;;;7.80;85.00;;;;;;5045214;28;20036;-64
2024/01/23 12:19:50;;;;;;;5.88;1.00;;;7.80;85.90;;;;;;5043205;28;20033;-62
2024/01/23 12:22:16;;;;;;;7.88;1.35;;;7.80;86.40;;;;;;5045066;28;20056;-63
2024/01/23 12:24:42;;;;;;;4.13;1.30;;;7.80;86.20;;;;;;5044472;28;20040;-63
2024/01/23 12:27:08;;;;;;;5.40;1.10;;;7.80;86.60;;;;;;5045572;28;20041;-64
2024/01/23 12:29:35;;;;;;;6.13;1.42;;;7.90;87.10;;;;;;5042910;28;20033;-62
2024/01/23 12:32:01;;;;;;;3.97;0.95;;;7.90;87.40;;;;;;5042553;28;20040;-62
2024/01/23 12:34:29;;;;;;;6.43;1.20;;;8.00;87.20;;;;;;5046263;28;20033;-64
2024/01/23 12:37:02;;;;;;;4.18;1.02;;;8.10;86.90;;;;;;5040462;28;20041;-63
2024/01/23 12:39:28;;;;;;;4.80;0.90;;;8.20;86.20;;;;;;5046004;28;20041;-64
2024/01/23 12:41:54;;;;;;;5.47;1.27;;;8.20;85.50;;;;;;5042112;28;20033;-63
2024/01/23 12:44:19;;;;;;;4.60;0.80;;;8.30;84.80;;;;;;5044833;28;20566;-63
2024/01/23 12:46:45;;;;;;;3.53;1.10;;;8.40;84.70;;;;;;5043214;28;20520;-63
2024/01/23 12:49:11;;;;;;;4.43;1.23;;;8.40;84.60;;;;;;5044551;28;20270;-63
2024/01/23 12:51:37;;;;;;;4.72;0.98;;;8.40;84.40;;;;;;5044398;28;20060;-61
2024/01/23 12:54:04;;;;;;;3.95;1.10;;;8.50;84.30;;;;;;5045066;28;20040;-62